createdAt,value
2022-08-07T00:02:36.314Z,83.72
2022-08-07T00:04:41.972Z,83.85
2022-08-07T00:07:21.768Z,84.03
2022-08-07T00:10:25.515Z,84.08
2022-08-07T00:13:01.412Z,83.94
2022-08-07T00:15:46.446Z,83.90
2022-08-07T00:18:33.034Z,83.89
2022-08-07T00:21:55.344Z,83.81
2022-08-07T00:24:08.594Z,83.81
2022-08-07T00:26:59.026Z,83.80
2022-08-07T00:29:41.548Z,83.84
2022-08-07T00:32:19.036Z,83.90
2022-08-07T00:35:04.793Z,83.90
2022-08-07T00:37:47.744Z,83.83
2022-08-07T00:40:38.963Z,83.79
2022-08-07T00:44:01.016Z,83.70
2022-08-07T00:46:14.437Z,83.87
2022-08-07T00:48:51.805Z,83.92
2022-08-07T00:51:58.739Z,83.98
2022-08-07T00:54:24.980Z,84.04
2022-08-07T00:57:01.538Z,84.01
2022-08-07T00:59:37.968Z,84.00
2022-08-07T01:02:28.127Z,84.12
2022-08-07T01:05:19.115Z,84.15
2022-08-07T01:07:56.353Z,83.95
2022-08-07T01:10:32.761Z,83.90
2022-08-07T01:13:11.359Z,84.18
2022-08-07T01:16:04.926Z,84.30
2022-08-07T01:18:42.623Z,84.30
2022-08-07T01:21:26.109Z,84.36
2022-08-07T01:24:07.332Z,84.24
2022-08-07T01:26:44.397Z,84.38
2022-08-07T01:29:31.374Z,84.30
2022-08-07T01:32:12.425Z,84.27
2022-08-07T01:34:52.285Z,84.25
2022-08-07T01:37:29.575Z,84.49
2022-08-07T01:40:15.849Z,84.51
2022-08-07T01:43:03.359Z,84.41
2022-08-07T01:45:42.563Z,84.26
2022-08-07T01:48:30.523Z,84.39
2022-08-07T01:52:02.804Z,84.65
2022-08-07T01:54:32.587Z,84.80
2022-08-07T01:57:30.870Z,84.86
2022-08-07T02:00:16.040Z,85.05
2022-08-07T02:03:19.465Z,85.16
2022-08-07T02:06:09.035Z,85.24
2022-08-07T02:09:11.575Z,85.22
2022-08-07T02:12:04.061Z,85.23
2022-08-07T02:14:44.971Z,84.97
2022-08-07T02:17:31.637Z,85.26
2022-08-07T02:20:19.912Z,85.28
2022-08-07T02:23:11.197Z,85.22
2022-08-07T02:26:31.541Z,85.02
2022-08-07T02:28:48.433Z,84.56
2022-08-07T02:31:28.687Z,84.64
2022-08-07T02:34:11.553Z,84.76
2022-08-07T02:36:59.289Z,84.77
2022-08-07T02:40:01.647Z,84.89
2022-08-07T02:42:35.913Z,84.94
2022-08-07T02:45:58.438Z,84.77
2022-08-07T02:48:15.972Z,84.62
2022-08-07T02:50:58.486Z,84.41
2022-08-07T02:53:41.404Z,84.30
2022-08-07T02:56:28.159Z,84.24
2022-08-07T02:59:12.986Z,84.16
2022-08-07T03:01:52.015Z,83.82
2022-08-07T03:04:30.979Z,83.77
2022-08-07T03:07:10.656Z,83.64
2022-08-07T03:09:51.970Z,83.31
2022-08-07T03:12:30.766Z,83.07
2022-08-07T03:15:12.345Z,82.80
2022-08-07T03:17:53.487Z,82.77
2022-08-07T03:20:32.703Z,82.85
2022-08-07T03:23:19.124Z,82.79
2022-08-07T03:25:59.884Z,82.69
2022-08-07T03:28:40.332Z,82.70
2022-08-07T03:31:24.447Z,82.72
2022-08-07T03:34:07.837Z,82.83
2022-08-07T03:36:45.905Z,82.82
2022-08-07T03:39:59.491Z,82.81
2022-08-07T03:42:25.206Z,82.81
2022-08-07T03:45:02.363Z,82.79
2022-08-07T03:47:48.123Z,82.88
2022-08-07T03:50:29.755Z,82.83
2022-08-07T03:53:07.374Z,82.82
2022-08-07T03:55:57.342Z,82.89
2022-08-07T03:59:08.572Z,83.03
2022-08-07T04:01:43.281Z,83.12
2022-08-07T04:04:23.777Z,83.20
2022-08-07T04:07:16.589Z,83.12
2022-08-07T04:09:54.308Z,82.96
2022-08-07T04:12:35.164Z,82.96
2022-08-07T04:15:17.040Z,82.90
2022-08-07T04:18:57.735Z,82.87
2022-08-07T04:20:54.770Z,82.81
2022-08-07T04:23:43.327Z,82.84
2022-08-07T04:26:29.675Z,82.93
2022-08-07T04:29:11.191Z,82.89
2022-08-07T04:32:02.913Z,83.00
2022-08-07T04:34:45.421Z,82.91
2022-08-07T04:37:22.712Z,82.88
2022-08-07T04:40:01.504Z,82.82
2022-08-07T04:42:37.900Z,82.79
2022-08-07T04:45:22.403Z,82.81
2022-08-07T04:48:27.160Z,83.01
2022-08-07T04:51:14.123Z,82.80
2022-08-07T04:54:06.052Z,82.55
2022-08-07T04:58:11.029Z,82.29
2022-08-07T05:00:10.909Z,82.05
2022-08-07T05:03:17.134Z,81.81
2022-08-07T05:06:19.388Z,81.75
2022-08-07T05:09:10.159Z,81.77
2022-08-07T05:11:57.129Z,81.80
2022-08-07T05:14:52.823Z,81.75
2022-08-07T05:17:50.337Z,81.81
2022-08-07T05:20:36.131Z,81.60
2022-08-07T05:23:19.132Z,81.49
2022-08-07T05:26:12.996Z,81.41
2022-08-07T05:29:04.331Z,81.24
2022-08-07T05:31:47.622Z,80.99
2022-08-07T05:34:32.770Z,80.87
2022-08-07T05:37:11.645Z,80.84
2022-08-07T05:40:16.646Z,80.80
2022-08-07T05:42:56.584Z,80.41
2022-08-07T05:45:47.633Z,80.16
2022-08-07T05:48:26.867Z,80.05
2022-08-07T05:51:05.196Z,79.92
2022-08-07T05:54:12.341Z,79.96
2022-08-07T05:56:40.959Z,79.79
2022-08-07T05:59:22.253Z,79.86
2022-08-07T06:02:03.769Z,79.91
2022-08-07T06:04:53.514Z,79.95
2022-08-07T06:08:05.418Z,79.55
2022-08-07T06:10:28.365Z,79.50
2022-08-07T06:13:06.407Z,79.50
2022-08-07T06:15:52.122Z,79.22
2022-08-07T06:18:33.278Z,79.31
2022-08-07T06:22:15.416Z,79.55
2022-08-07T06:24:46.219Z,79.73
2022-08-07T06:27:09.774Z,79.80
2022-08-07T06:29:47.173Z,79.77
2022-08-07T06:32:26.123Z,79.78
2022-08-07T06:35:10.535Z,79.85
2022-08-07T06:37:54.538Z,79.83
2022-08-07T06:40:36.390Z,79.76
2022-08-07T06:43:21.479Z,79.36
2022-08-07T06:46:14.634Z,78.83
2022-08-07T06:48:56.944Z,78.90
2022-08-07T06:51:49.282Z,78.79
2022-08-07T06:55:32.082Z,78.32
2022-08-07T06:57:43.737Z,77.75
2022-08-07T07:00:25.819Z,77.59
2022-08-07T07:03:08.688Z,77.22
2022-08-07T07:06:04.027Z,76.46
2022-08-07T07:08:46.629Z,76.48
2022-08-07T07:12:10.611Z,76.36
2022-08-07T07:14:23.312Z,75.81
2022-08-07T07:17:05.737Z,75.79
2022-08-07T07:19:57.013Z,75.18
2022-08-07T07:24:06.640Z,75.08
2022-08-07T07:26:33.238Z,74.64
2022-08-07T07:29:22.731Z,74.09
2022-08-07T07:31:44.561Z,72.81
2022-08-07T07:34:31.832Z,72.04
2022-08-07T07:37:21.489Z,71.97
2022-08-07T07:40:17.894Z,71.64
2022-08-07T07:43:11.526Z,70.74
2022-08-07T07:46:40.314Z,69.83
2022-08-07T07:49:00.180Z,69.08
2022-08-07T07:51:57.562Z,68.29
2022-08-07T07:54:36.889Z,67.75
2022-08-07T07:57:15.994Z,66.21
2022-08-07T07:59:54.472Z,65.33
2022-08-07T08:02:36.109Z,65.96
2022-08-07T08:05:15.746Z,64.79
2022-08-07T08:08:00.805Z,63.56
2022-08-07T08:10:39.398Z,62.23
2022-08-07T08:13:17.543Z,61.51
2022-08-07T08:16:00.710Z,60.37
2022-08-07T08:18:38.389Z,59.63
2022-08-07T08:22:00.805Z,58.55
2022-08-07T08:24:57.391Z,59.37
2022-08-07T08:27:57.336Z,58.22
2022-08-07T08:30:42.906Z,56.80
2022-08-07T08:33:33.118Z,55.98
2022-08-07T08:36:13.605Z,55.95
2022-08-07T08:38:55.477Z,55.33
2022-08-07T08:41:58.584Z,56.15
2022-08-07T08:44:44.695Z,55.17
2022-08-07T08:47:47.442Z,54.48
2022-08-07T08:50:39.790Z,55.38
2022-08-07T08:53:30.692Z,53.99
2022-08-07T08:56:17.362Z,53.77
2022-08-07T08:59:12.805Z,53.92
2022-08-07T09:02:01.807Z,54.92
2022-08-07T09:04:57.726Z,55.48
2022-08-07T09:07:58.014Z,53.85
2022-08-07T09:10:45.137Z,54.18
2022-08-07T09:13:37.695Z,54.41
2022-08-07T09:16:30.403Z,55.07
2022-08-07T09:19:53.055Z,55.32
2022-08-07T09:24:53.786Z,55.06
2022-08-07T09:26:02.953Z,54.33
2022-08-07T09:30:06.560Z,54.86
2022-08-07T09:32:03.593Z,54.86
2022-08-07T09:36:01.030Z,53.89
2022-08-07T09:38:43.753Z,53.78
2022-08-07T09:41:58.336Z,53.19
2022-08-07T09:47:50.580Z,52.84
2022-08-07T09:48:29.756Z,52.48
2022-08-07T09:52:16.278Z,51.62
2022-08-07T09:54:46.269Z,51.49
2022-08-07T09:58:10.110Z,51.42
2022-08-07T10:01:51.981Z,51.57
2022-08-07T10:04:57.301Z,50.52
2022-08-07T10:07:58.817Z,50.47
2022-08-07T10:11:59.885Z,49.69
2022-08-07T10:14:06.982Z,50.46
2022-08-07T10:17:25.480Z,49.64
2022-08-07T10:20:30.439Z,49.60
2022-08-07T10:24:06.305Z,48.93
2022-08-07T10:27:02.451Z,48.82
2022-08-07T10:30:12.356Z,48.90
2022-08-07T10:34:05.785Z,47.90
2022-08-07T10:37:12.379Z,47.96
2022-08-07T10:40:08.850Z,48.51
2022-08-07T10:43:03.252Z,48.58
2022-08-07T10:45:57.156Z,48.23
2022-08-07T10:48:51.469Z,47.85
2022-08-07T10:52:02.045Z,48.47
2022-08-07T10:55:00.938Z,49.54
2022-08-07T10:57:58.033Z,49.99
2022-08-07T11:00:56.310Z,50.40
2022-08-07T11:03:52.786Z,50.51
2022-08-07T11:06:51.686Z,50.10
2022-08-07T11:10:09.159Z,51.55
2022-08-07T11:12:44.108Z,51.02
2022-08-07T11:15:32.790Z,50.63
2022-08-07T11:18:22.687Z,50.93
2022-08-07T11:21:14.190Z,50.41
2022-08-07T11:24:05.243Z,50.36
2022-08-07T11:27:07.853Z,49.59
2022-08-07T11:30:17.608Z,50.33
2022-08-07T11:33:14.334Z,49.57
2022-08-07T11:36:12.985Z,49.25
2022-08-07T11:39:10.111Z,48.63
2022-08-07T11:42:07.887Z,48.41
2022-08-07T11:45:12.464Z,47.96
2022-08-07T11:48:29.088Z,48.51
2022-08-07T11:51:44.985Z,48.09
2022-08-07T11:54:59.345Z,47.63
2022-08-07T11:57:59.360Z,47.37
2022-08-07T12:01:01.657Z,47.32
2022-08-07T12:04:18.513Z,47.11
2022-08-07T12:07:09.072Z,47.75
2022-08-07T12:10:08.543Z,46.87
2022-08-07T12:12:58.370Z,46.73
2022-08-07T12:16:06.987Z,46.97
2022-08-07T12:18:51.250Z,47.63
2022-08-07T12:21:55.764Z,47.68
2022-08-07T12:26:21.984Z,46.80
2022-08-07T12:28:37.933Z,46.78
2022-08-07T12:31:53.127Z,46.00
2022-08-07T12:34:49.412Z,46.12
2022-08-07T12:38:11.360Z,46.39
2022-08-07T12:40:47.091Z,45.91
2022-08-07T12:44:04.205Z,45.79
2022-08-07T12:46:52.014Z,44.49
2022-08-07T12:49:51.572Z,44.46
2022-08-07T12:52:52.996Z,44.60
2022-08-07T12:55:41.200Z,44.42
2022-08-07T12:58:35.331Z,45.35
2022-08-07T13:01:43.932Z,45.23
2022-08-07T13:05:01.866Z,44.55
2022-08-07T13:08:21.609Z,44.82
2022-08-07T13:11:17.223Z,44.86
2022-08-07T13:14:09.441Z,45.67
2022-08-07T13:17:02.539Z,45.30
2022-08-07T13:19:53.527Z,44.77
2022-08-07T13:22:37.300Z,45.03
2022-08-07T13:25:29.601Z,44.65
2022-08-07T13:28:26.414Z,44.00
2022-08-07T13:31:24.014Z,43.38
2022-08-07T13:34:32.907Z,43.10
2022-08-07T13:37:29.241Z,43.33
2022-08-07T13:40:35.322Z,43.32
2022-08-07T13:43:21.680Z,43.21
2022-08-07T13:46:12.526Z,42.21
2022-08-07T13:49:08.848Z,42.61
2022-08-07T13:52:33.573Z,42.80
2022-08-07T13:55:13.227Z,41.82
2022-08-07T13:58:36.059Z,42.79
2022-08-07T14:01:21.909Z,42.24
2022-08-07T14:04:07.908Z,41.98
2022-08-07T14:06:50.259Z,41.54
2022-08-07T14:10:01.297Z,42.45
2022-08-07T14:12:54.144Z,42.72
2022-08-07T14:15:36.839Z,43.14
2022-08-07T14:18:28.797Z,42.18
2022-08-07T14:22:41.136Z,42.58
2022-08-07T14:24:26.383Z,42.39
2022-08-07T14:28:09.357Z,42.64
2022-08-07T14:30:11.600Z,41.71
2022-08-07T14:32:56.197Z,41.65
2022-08-07T14:35:45.739Z,41.69
2022-08-07T14:38:31.186Z,41.69
2022-08-07T14:41:15.254Z,40.20
2022-08-07T14:47:08.695Z,41.62
2022-08-07T14:49:58.242Z,41.12
2022-08-07T14:52:39.015Z,40.93
2022-08-07T14:55:17.916Z,41.42
2022-08-07T14:57:59.093Z,41.51
2022-08-07T15:00:40.838Z,41.12
2022-08-07T15:06:15.373Z,40.90
2022-08-07T15:08:54.884Z,40.59
2022-08-07T15:11:53.270Z,40.90
2022-08-07T15:14:56.043Z,40.78
2022-08-07T15:17:54.521Z,41.29
2022-08-07T15:20:54.970Z,41.16
2022-08-07T15:26:46.843Z,42.52
2022-08-07T15:30:09.796Z,42.33
2022-08-07T15:32:39.890Z,41.68
2022-08-07T15:36:02.371Z,42.19
2022-08-07T15:38:33.051Z,42.48
2022-08-07T15:42:46.674Z,41.54
2022-08-07T15:48:01.242Z,42.24
2022-08-07T15:51:07.825Z,42.18
2022-08-07T15:53:51.839Z,41.05
2022-08-07T15:56:40.615Z,41.22
2022-08-07T15:59:39.790Z,41.70
2022-08-07T16:02:28.463Z,42.10
2022-08-07T16:05:15.454Z,42.30
2022-08-07T16:08:30.264Z,42.09
2022-08-07T16:11:04.263Z,42.19
2022-08-07T16:14:17.136Z,41.90
2022-08-07T16:18:01.972Z,41.90
2022-08-07T16:22:01.683Z,42.31
2022-08-07T16:24:34.706Z,42.45
2022-08-07T16:27:25.709Z,42.98
2022-08-07T16:30:32.103Z,42.93
2022-08-07T16:34:03.396Z,43.27
2022-08-07T16:36:33.427Z,43.04
2022-08-07T16:40:23.417Z,43.22
2022-08-07T16:43:23.628Z,43.16
2022-08-07T16:47:08.986Z,43.57
2022-08-07T16:50:35.418Z,43.47
2022-08-07T16:54:02.073Z,43.74
2022-08-07T16:57:03.854Z,43.83
2022-08-07T17:00:02.755Z,44.07
2022-08-07T17:03:09.918Z,44.35
2022-08-07T17:06:28.927Z,44.67
2022-08-07T17:10:06.940Z,44.97
2022-08-07T17:12:36.805Z,45.32
2022-08-07T17:15:44.260Z,45.55
2022-08-07T17:18:39.026Z,46.03
2022-08-07T17:21:24.553Z,46.54
2022-08-07T17:24:27.365Z,47.89
2022-08-07T17:27:19.933Z,49.49
2022-08-07T17:30:19.268Z,50.09
2022-08-07T17:34:08.747Z,51.12
2022-08-07T17:36:28.465Z,51.78
2022-08-07T17:39:16.007Z,52.76
2022-08-07T17:42:06.480Z,53.11
2022-08-07T17:44:54.649Z,53.73
2022-08-07T17:47:45.737Z,54.67
2022-08-07T17:50:54.436Z,53.65
2022-08-07T17:54:02.060Z,55.02
2022-08-07T17:56:49.480Z,54.98
2022-08-07T17:59:37.236Z,55.37
2022-08-07T18:02:24.699Z,55.56
2022-08-07T18:05:20.751Z,55.77
2022-08-07T18:08:23.832Z,55.73
2022-08-07T18:12:07.488Z,55.45
2022-08-07T18:14:37.631Z,55.35
2022-08-07T18:18:47.730Z,55.32
2022-08-07T18:21:06.021Z,55.27
2022-08-07T18:24:07.060Z,55.20
2022-08-07T18:27:25.153Z,55.35
2022-08-07T18:30:32.675Z,55.68
2022-08-07T18:34:37.121Z,55.60
2022-08-07T18:38:55.413Z,55.22
2022-08-07T18:40:53.781Z,55.21
2022-08-07T18:43:57.809Z,55.50
2022-08-07T18:47:00.010Z,55.91
2022-08-07T18:50:19.765Z,55.78
2022-08-07T18:53:22.559Z,55.63
2022-08-07T18:56:38.637Z,55.44
2022-08-07T18:59:58.798Z,55.50
2022-08-07T19:02:47.103Z,55.56
2022-08-07T19:06:01.911Z,55.61
2022-08-07T19:08:46.574Z,55.51
2022-08-07T19:12:04.761Z,55.52
2022-08-07T19:16:03.020Z,55.27
2022-08-07T19:18:34.808Z,55.01
2022-08-07T19:21:45.126Z,55.15
2022-08-07T19:24:37.574Z,55.14
2022-08-07T19:28:56.432Z,55.15
2022-08-07T19:31:05.371Z,55.32
2022-08-07T19:33:19.833Z,55.36
2022-08-07T19:36:27.535Z,55.49
2022-08-07T19:39:08.984Z,55.62
2022-08-07T19:42:07.869Z,55.71
2022-08-07T19:44:56.753Z,55.90
2022-08-07T19:47:41.973Z,56.23
2022-08-07T19:50:43.687Z,56.38
2022-08-07T19:54:34.343Z,56.54
2022-08-07T19:58:02.039Z,56.65
2022-08-07T19:59:37.947Z,56.75
2022-08-07T20:02:30.890Z,56.85
2022-08-07T20:05:13.928Z,56.97
2022-08-07T20:07:55.454Z,57.12
2022-08-07T20:10:54.655Z,57.27
2022-08-07T20:13:43.538Z,57.52
2022-08-07T20:16:35.844Z,57.75
2022-08-07T20:19:20.679Z,57.93
2022-08-07T20:21:59.280Z,58.08
2022-08-07T20:24:52.316Z,58.25
2022-08-07T20:27:47.787Z,58.58
2022-08-07T20:30:31.766Z,58.88
2022-08-07T20:33:36.155Z,59.11
2022-08-07T20:36:16.995Z,59.39
2022-08-07T20:39:00.658Z,59.56
2022-08-07T20:41:50.749Z,59.78
2022-08-07T20:44:39.352Z,59.98
2022-08-07T20:47:56.377Z,60.17
2022-08-07T20:50:30.307Z,60.39
2022-08-07T20:53:11.556Z,60.53
2022-08-07T20:55:53.960Z,60.72
2022-08-07T20:58:38.526Z,60.83
2022-08-07T21:01:19.858Z,60.94
2022-08-07T21:04:22.858Z,61.01
2022-08-07T21:07:04.349Z,61.23
2022-08-07T21:10:00.290Z,61.29
2022-08-07T21:12:39.780Z,61.17
2022-08-07T21:15:19.845Z,61.36
2022-08-07T21:18:27.858Z,61.17
2022-08-07T21:21:07.049Z,61.25
2022-08-07T21:24:01.964Z,60.99
2022-08-07T21:26:57.561Z,60.95
2022-08-07T21:29:53.168Z,60.85
2022-08-07T21:32:47.705Z,60.75
2022-08-07T21:36:04.327Z,60.67
2022-08-07T21:38:54.552Z,60.49
2022-08-07T21:41:52.154Z,60.26
2022-08-07T21:44:52.717Z,60.13
2022-08-07T21:47:50.134Z,59.99
2022-08-07T21:50:36.327Z,59.79
2022-08-07T21:53:22.881Z,59.70
2022-08-07T21:56:16.664Z,59.64
2022-08-07T21:59:17.587Z,59.56
2022-08-07T22:02:07.276Z,59.40
2022-08-07T22:04:54.428Z,59.41
2022-08-07T22:07:58.406Z,59.51
2022-08-07T22:10:42.450Z,59.51
2022-08-07T22:13:24.209Z,59.45
2022-08-07T22:16:38.695Z,59.44
2022-08-07T22:19:36.966Z,59.60
2022-08-07T22:22:28.572Z,59.63
2022-08-07T22:25:19.683Z,59.75
2022-08-07T22:28:29.724Z,59.74
2022-08-07T22:31:45.407Z,59.80
2022-08-07T22:34:29.230Z,59.80
2022-08-07T22:37:19.504Z,59.82
2022-08-07T22:40:19.768Z,59.97
2022-08-07T22:43:08.392Z,59.93
2022-08-07T22:47:03.344Z,60.10
2022-08-07T22:50:06.797Z,60.43
2022-08-07T22:54:06.776Z,60.75
2022-08-07T22:57:02.188Z,60.99
2022-08-07T23:00:02.019Z,61.22
2022-08-07T23:03:01.180Z,61.35
2022-08-07T23:06:16.833Z,61.41
2022-08-07T23:10:04.036Z,61.64
2022-08-07T23:13:16.113Z,61.89
2022-08-07T23:16:11.184Z,62.04
2022-08-07T23:19:51.302Z,62.19
2022-08-07T23:22:52.376Z,62.36
2022-08-07T23:25:58.207Z,62.40
2022-08-07T23:30:36.324Z,63.02
2022-08-07T23:34:22.320Z,62.92
2022-08-07T23:35:44.262Z,63.05
2022-08-07T23:38:43.128Z,63.00
2022-08-07T23:42:04.968Z,63.06
2022-08-07T23:45:04.635Z,63.30
2022-08-07T23:48:02.980Z,63.41
2022-08-07T23:50:55.530Z,63.65
2022-08-07T23:53:49.953Z,63.78
2022-08-07T23:56:41.734Z,64.67
